sensor_id;sensor_type;location;lat;lon;timestamp;temperature;humidity
6520;DHT22;3293;51.690;5.982;2023-09-08T00:03:45;18.00;99.90
6520;DHT22;3293;51.690;5.982;2023-09-08T00:08:45;18.00;99.90
6520;DHT22;3293;51.690;5.982;2023-09-08T00:13:45;17.80;99.90
6520;DHT22;3293;51.690;5.982;2023-09-08T00:18:45;17.80;99.90
6520;DHT22;3293;51.690;5.982;2023-09-08T00:23:45;17.70;99.90
6520;DHT22;3293;51.690;5.982;2023-09-08T00:28:45;17.60;99.90
6520;DHT22;3293;51.690;5.982;2023-09-08T00:33:45;17.50;99.90
6520;DHT22;3293;51.690;5.982;2023-09-08T00:38:45;17.40;99.90
6520;DHT22;3293;51.690;5.982;2023-09-08T00:43:45;17.40;99.90
6520;DHT22;3293;51.690;5.982;2023-09-08T00:48:45;17.30;99.90
6520;DHT22;3293;51.690;5.982;2023-09-08T00:53:45;17.30;99.90
6520;DHT22;3293;51.690;5.982;2023-09-08T00:58:46;17.20;99.90
6520;DHT22;3293;51.690;5.982;2023-09-08T01:03:46;17.20;99.90
6520;DHT22;3293;51.690;5.982;2023-09-08T01:08:46;17.00;99.90
6520;DHT22;3293;51.690;5.982;2023-09-08T01:13:46;17.00;99.90
6520;DHT22;3293;51.690;5.982;2023-09-08T01:18:47;17.00;99.90
6520;DHT22;3293;51.690;5.982;2023-09-08T01:29:30;16.90;99.90
6520;DHT22;3293;51.690;5.982;2023-09-08T01:34:30;16.80;99.90
6520;DHT22;3293;51.690;5.982;2023-09-08T01:39:30;16.80;99.90
6520;DHT22;3293;51.690;5.982;2023-09-08T01:44:30;16.70;99.90
6520;DHT22;3293;51.690;5.982;2023-09-08T01:49:30;16.70;99.90
6520;DHT22;3293;51.690;5.982;2023-09-08T01:54:30;16.70;99.90
6520;DHT22;3293;51.690;5.982;2023-09-08T01:59:30;16.60;99.90
6520;DHT22;3293;51.690;5.982;2023-09-08T02:04:29;16.60;99.90
6520;DHT22;3293;51.690;5.982;2023-09-08T02:09:34;16.60;99.90
6520;DHT22;3293;51.690;5.982;2023-09-08T02:14:34;16.50;99.90
6520;DHT22;3293;51.690;5.982;2023-09-08T02:19:34;16.50;99.90
6520;DHT22;3293;51.690;5.982;2023-09-08T02:24:34;16.40;99.90
6520;DHT22;3293;51.690;5.982;2023-09-08T02:29:34;16.40;99.90
6520;DHT22;3293;51.690;5.982;2023-09-08T02:34:35;16.30;99.90
6520;DHT22;3293;51.690;5.982;2023-09-08T02:39:38;16.30;99.90
6520;DHT22;3293;51.690;5.982;2023-09-08T02:44:38;16.30;99.90
6520;DHT22;3293;51.690;5.982;2023-09-08T02:49:38;16.30;99.90
6520;DHT22;3293;51.690;5.982;2023-09-08T02:54:39;16.20;99.90
6520;DHT22;3293;51.690;5.982;2023-09-08T02:59:39;16.20;99.90
6520;DHT22;3293;51.690;5.982;2023-09-08T03:04:41;16.10;99.90
6520;DHT22;3293;51.690;5.982;2023-09-08T03:09:41;16.10;99.90
6520;DHT22;3293;51.690;5.982;2023-09-08T03:14:41;16.10;99.90
6520;DHT22;3293;51.690;5.982;2023-09-08T03:19:45;16.00;99.90
6520;DHT22;3293;51.690;5.982;2023-09-08T03:24:44;16.00;99.90
6520;DHT22;3293;51.690;5.982;2023-09-08T03:29:44;15.90;99.90
6520;DHT22;3293;51.690;5.982;2023-09-08T03:34:44;15.90;99.90
6520;DHT22;3293;51.690;5.982;2023-09-08T03:39:44;15.80;99.90
6520;DHT22;3293;51.690;5.982;2023-09-08T03:44:44;15.70;99.90
6520;DHT22;3293;51.690;5.982;2023-09-08T03:49:44;15.70;99.90
6520;DHT22;3293;51.690;5.982;2023-09-08T03:54:44;15.60;99.90
6520;DHT22;3293;51.690;5.982;2023-09-08T03:59:46;15.60;99.90
6520;DHT22;3293;51.690;5.982;2023-09-08T04:04:45;15.60;99.90
6520;DHT22;3293;51.690;5.982;2023-09-08T04:09:45;15.60;99.90
6520;DHT22;3293;51.690;5.982;2023-09-08T04:14:45;15.60;99.90
6520;DHT22;3293;51.690;5.982;2023-09-08T04:19:45;15.50;99.90
6520;DHT22;3293;51.690;5.982;2023-09-08T04:24:45;15.40;99.90
6520;DHT22;3293;51.690;5.982;2023-09-08T04:29:45;15.40;99.90
6520;DHT22;3293;51.690;5.982;2023-09-08T04:34:45;15.40;99.90
6520;DHT22;3293;51.690;5.982;2023-09-08T04:39:45;15.30;99.90
6520;DHT22;3293;51.690;5.982;2023-09-08T04:44:45;15.30;99.90
6520;DHT22;3293;51.690;5.982;2023-09-08T04:49:45;15.30;99.90
6520;DHT22;3293;51.690;5.982;2023-09-08T04:54:45;15.20;99.90
6520;DHT22;3293;51.690;5.982;2023-09-08T04:59:45;15.20;99.90
6520;DHT22;3293;51.690;5.982;2023-09-08T05:04:45;15.20;99.90
6520;DHT22;3293;51.690;5.982;2023-09-08T05:09:45;15.20;99.90
6520;DHT22;3293;51.690;5.982;2023-09-08T05:14:45;15.30;99.90
6520;DHT22;3293;51.690;5.982;2023-09-08T05:19:45;15.30;99.90
6520;DHT22;3293;51.690;5.982;2023-09-08T05:24:44;15.50;99.90
6520;DHT22;3293;51.690;5.982;2023-09-08T05:29:44;15.70;99.90
6520;DHT22;3293;51.690;5.982;2023-09-08T05:34:44;15.80;99.90
6520;DHT22;3293;51.690;5.982;2023-09-08T05:39:44;16.00;99.90
6520;DHT22;3293;51.690;5.982;2023-09-08T05:44:44;16.00;99.90
6520;DHT22;3293;51.690;5.982;2023-09-08T05:49:45;16.20;99.90
6520;DHT22;3293;51.690;5.982;2023-09-08T05:54:45;16.50;99.90
6520;DHT22;3293;51.690;5.982;2023-09-08T05:59:45;16.70;99.90
6520;DHT22;3293;51.690;5.982;2023-09-08T06:04:44;16.90;99.90
6520;DHT22;3293;51.690;5.982;2023-09-08T06:09:44;17.10;99.90
6520;DHT22;3293;51.690;5.982;2023-09-08T06:14:44;17.40;99.90
6520;DHT22;3293;51.690;5.982;2023-09-08T06:19:44;17.60;99.90
6520;DHT22;3293;51.690;5.982;2023-09-08T06:24:44;17.90;99.90
6520;DHT22;3293;51.690;5.982;2023-09-08T06:29:44;18.30;99.90
6520;DHT22;3293;51.690;5.982;2023-09-08T06:34:44;18.50;99.90
6520;DHT22;3293;51.690;5.982;2023-09-08T06:39:44;19.00;99.90
6520;DHT22;3293;51.690;5.982;2023-09-08T06:44:44;19.90;99.90
6520;DHT22;3293;51.690;5.982;2023-09-08T06:49:44;21.00;99.90
6520;DHT22;3293;51.690;5.982;2023-09-08T06:54:44;22.00;99.90
6520;DHT22;3293;51.690;5.982;2023-09-08T06:59:47;23.80;94.60
6520;DHT22;3293;51.690;5.982;2023-09-08T07:04:46;25.80;84.10
6520;DHT22;3293;51.690;5.982;2023-09-08T07:09:47;27.50;66.80
6520;DHT22;3293;51.690;5.982;2023-09-08T07:14:46;28.20;57.30
6520;DHT22;3293;51.690;5.982;2023-09-08T07:19:46;28.80;50.40
6520;DHT22;3293;51.690;5.982;2023-09-08T07:24:47;29.30;45.20
6520;DHT22;3293;51.690;5.982;2023-09-08T07:29:46;29.70;43.20
6520;DHT22;3293;51.690;5.982;2023-09-08T07:34:47;30.10;40.60
6520;DHT22;3293;51.690;5.982;2023-09-08T07:39:54;30.30;38.20
6520;DHT22;3293;51.690;5.982;2023-09-08T07:44:54;30.40;37.20
6520;DHT22;3293;51.690;5.982;2023-09-08T07:50:27;30.60;34.00
6520;DHT22;3293;51.690;5.982;2023-09-08T07:55:27;30.70;37.10
6520;DHT22;3293;51.690;5.982;2023-09-08T08:00:28;30.50;34.70
6520;DHT22;3293;51.690;5.982;2023-09-08T08:05:28;31.20;32.90
6520;DHT22;3293;51.690;5.982;2023-09-08T08:10:27;31.30;32.10
6520;DHT22;3293;51.690;5.982;2023-09-08T08:15:39;31.60;30.70
6520;DHT22;3293;51.690;5.982;2023-09-08T08:20:39;31.90;29.50
6520;DHT22;3293;51.690;5.982;2023-09-08T08:25:39;32.00;28.00
6520;DHT22;3293;51.690;5.982;2023-09-08T08:30:39;32.00;28.50
6520;DHT22;3293;51.690;5.982;2023-09-08T08:35:39;32.50;28.10
6520;DHT22;3293;51.690;5.982;2023-09-08T08:40:39;32.70;26.10
6520;DHT22;3293;51.690;5.982;2023-09-08T08:45:41;32.80;26.40
6520;DHT22;3293;51.690;5.982;2023-09-08T08:50:42;33.10;23.40
6520;DHT22;3293;51.690;5.982;2023-09-08T08:55:43;33.40;24.90
6520;DHT22;3293;51.690;5.982;2023-09-08T09:00:44;33.90;23.40
6520;DHT22;3293;51.690;5.982;2023-09-08T09:05:46;34.20;22.30
6520;DHT22;3293;51.690;5.982;2023-09-08T09:10:46;34.50;21.00
6520;DHT22;3293;51.690;5.982;2023-09-08T09:15:46;34.20;21.40
6520;DHT22;3293;51.690;5.982;2023-09-08T09:20:54;33.20;24.70
6520;DHT22;3293;51.690;5.982;2023-09-08T09:25:56;32.50;26.60
6520;DHT22;3293;51.690;5.982;2023-09-08T09:30:56;31.90;30.20
6520;DHT22;3293;51.690;5.982;2023-09-08T09:35:56;30.90;34.20
6520;DHT22;3293;51.690;5.982;2023-09-08T09:40:57;29.80;41.60
6520;DHT22;3293;51.690;5.982;2023-09-08T09:45:57;28.90;50.90
6520;DHT22;3293;51.690;5.982;2023-09-08T09:50:58;28.20;54.20
6520;DHT22;3293;51.690;5.982;2023-09-08T09:55:58;27.90;59.70
6520;DHT22;3293;51.690;5.982;2023-09-08T10:00:58;27.80;64.20
6520;DHT22;3293;51.690;5.982;2023-09-08T10:06:00;27.70;65.90
6520;DHT22;3293;51.690;5.982;2023-09-08T10:11:06;27.70;61.90
6520;DHT22;3293;51.690;5.982;2023-09-08T10:16:08;27.80;65.60
6520;DHT22;3293;51.690;5.982;2023-09-08T10:21:09;27.70;63.60
6520;DHT22;3293;51.690;5.982;2023-09-08T10:26:12;27.70;63.90
6520;DHT22;3293;51.690;5.982;2023-09-08T10:31:17;27.80;61.20
6520;DHT22;3293;51.690;5.982;2023-09-08T10:36:17;27.90;58.10
6520;DHT22;3293;51.690;5.982;2023-09-08T10:46:31;28.00;56.60
6520;DHT22;3293;51.690;5.982;2023-09-08T10:51:31;28.00;59.00
6520;DHT22;3293;51.690;5.982;2023-09-08T10:56:54;28.10;58.10
6520;DHT22;3293;51.690;5.982;2023-09-08T11:01:54;28.10;58.80
6520;DHT22;3293;51.690;5.982;2023-09-08T11:06:56;28.00;57.10
6520;DHT22;3293;51.690;5.982;2023-09-08T11:11:56;28.10;57.10
6520;DHT22;3293;51.690;5.982;2023-09-08T11:16:57;28.10;58.80
6520;DHT22;3293;51.690;5.982;2023-09-08T11:21:58;28.10;56.60
6520;DHT22;3293;51.690;5.982;2023-09-08T11:26:58;28.10;59.80
6520;DHT22;3293;51.690;5.982;2023-09-08T11:31:59;28.30;55.90
6520;DHT22;3293;51.690;5.982;2023-09-08T11:37:00;28.40;54.40
6520;DHT22;3293;51.690;5.982;2023-09-08T11:42:01;28.50;51.40
6520;DHT22;3293;51.690;5.982;2023-09-08T11:47:02;28.50;55.90
6520;DHT22;3293;51.690;5.982;2023-09-08T11:52:03;28.70;51.40
6520;DHT22;3293;51.690;5.982;2023-09-08T11:57:05;28.70;54.70
6520;DHT22;3293;51.690;5.982;2023-09-08T12:02:07;28.70;51.10
6520;DHT22;3293;51.690;5.982;2023-09-08T12:07:11;28.70;49.70
6520;DHT22;3293;51.690;5.982;2023-09-08T12:12:13;28.70;49.50
6520;DHT22;3293;51.690;5.982;2023-09-08T12:17:13;28.80;51.60
6520;DHT22;3293;51.690;5.982;2023-09-08T12:22:17;28.90;49.60
6520;DHT22;3293;51.690;5.982;2023-09-08T12:27:22;29.00;53.30
6520;DHT22;3293;51.690;5.982;2023-09-08T12:32:24;28.90;45.20
6520;DHT22;3293;51.690;5.982;2023-09-08T12:37:25;28.90;48.30
6520;DHT22;3293;51.690;5.982;2023-09-08T12:42:29;28.80;45.80
6520;DHT22;3293;51.690;5.982;2023-09-08T12:47:29;28.80;45.10
6520;DHT22;3293;51.690;5.982;2023-09-08T12:52:29;28.80;45.10
6520;DHT22;3293;51.690;5.982;2023-09-08T12:57:28;28.90;52.70
6520;DHT22;3293;51.690;5.982;2023-09-08T13:02:29;28.90;48.90
6520;DHT22;3293;51.690;5.982;2023-09-08T13:07:29;28.80;52.10
6520;DHT22;3293;51.690;5.982;2023-09-08T13:12:29;28.80;52.80
6520;DHT22;3293;51.690;5.982;2023-09-08T13:17:30;28.90;51.00
6520;DHT22;3293;51.690;5.982;2023-09-08T13:22:30;28.90;50.60
6520;DHT22;3293;51.690;5.982;2023-09-08T13:27:31;29.10;50.90
6520;DHT22;3293;51.690;5.982;2023-09-08T13:32:31;29.00;47.10
6520;DHT22;3293;51.690;5.982;2023-09-08T13:37:30;29.00;50.30
6520;DHT22;3293;51.690;5.982;2023-09-08T13:42:30;28.90;48.80
6520;DHT22;3293;51.690;5.982;2023-09-08T13:47:30;29.00;47.90
6520;DHT22;3293;51.690;5.982;2023-09-08T13:52:30;29.00;46.00
6520;DHT22;3293;51.690;5.982;2023-09-08T13:57:30;29.00;50.20
6520;DHT22;3293;51.690;5.982;2023-09-08T14:02:30;29.10;46.70
6520;DHT22;3293;51.690;5.982;2023-09-08T14:07:30;29.00;50.30
6520;DHT22;3293;51.690;5.982;2023-09-08T14:12:31;29.00;51.60
6520;DHT22;3293;51.690;5.982;2023-09-08T14:17:31;29.00;48.60
6520;DHT22;3293;51.690;5.982;2023-09-08T14:22:31;28.90;49.20
6520;DHT22;3293;51.690;5.982;2023-09-08T14:27:31;28.90;46.10
6520;DHT22;3293;51.690;5.982;2023-09-08T14:32:31;28.90;51.50
6520;DHT22;3293;51.690;5.982;2023-09-08T14:37:31;28.80;49.50
6520;DHT22;3293;51.690;5.982;2023-09-08T14:42:31;28.80;49.70
6520;DHT22;3293;51.690;5.982;2023-09-08T14:47:31;28.90;47.90
6520;DHT22;3293;51.690;5.982;2023-09-08T14:52:32;28.90;49.00
6520;DHT22;3293;51.690;5.982;2023-09-08T14:57:32;28.70;50.60
6520;DHT22;3293;51.690;5.982;2023-09-08T15:02:32;28.60;55.60
6520;DHT22;3293;51.690;5.982;2023-09-08T15:07:32;28.50;54.70
6520;DHT22;3293;51.690;5.982;2023-09-08T15:12:32;28.30;53.20
6520;DHT22;3293;51.690;5.982;2023-09-08T15:17:32;28.20;54.20
6520;DHT22;3293;51.690;5.982;2023-09-08T15:22:32;28.20;56.00
6520;DHT22;3293;51.690;5.982;2023-09-08T15:27:32;28.20;57.70
6520;DHT22;3293;51.690;5.982;2023-09-08T15:32:32;28.20;52.10
6520;DHT22;3293;51.690;5.982;2023-09-08T15:37:32;28.30;54.50
6520;DHT22;3293;51.690;5.982;2023-09-08T15:42:32;28.20;51.70
6520;DHT22;3293;51.690;5.982;2023-09-08T15:47:32;28.10;53.40
6520;DHT22;3293;51.690;5.982;2023-09-08T15:52:32;28.00;54.20
6520;DHT22;3293;51.690;5.982;2023-09-08T15:57:32;27.90;55.90
6520;DHT22;3293;51.690;5.982;2023-09-08T16:02:32;27.80;58.60
6520;DHT22;3293;51.690;5.982;2023-09-08T16:07:32;27.80;60.50
6520;DHT22;3293;51.690;5.982;2023-09-08T16:12:32;27.70;61.20
6520;DHT22;3293;51.690;5.982;2023-09-08T16:17:32;27.60;60.20
6520;DHT22;3293;51.690;5.982;2023-09-08T16:22:32;27.60;61.90
6520;DHT22;3293;51.690;5.982;2023-09-08T16:27:31;27.50;63.80
6520;DHT22;3293;51.690;5.982;2023-09-08T16:32:31;27.40;64.90
6520;DHT22;3293;51.690;5.982;2023-09-08T16:37:31;27.40;67.60
6520;DHT22;3293;51.690;5.982;2023-09-08T16:42:31;27.20;70.20
6520;DHT22;3293;51.690;5.982;2023-09-08T16:47:31;27.10;72.70
6520;DHT22;3293;51.690;5.982;2023-09-08T16:52:31;26.90;76.20
6520;DHT22;3293;51.690;5.982;2023-09-08T16:57:31;26.80;78.60
6520;DHT22;3293;51.690;5.982;2023-09-08T17:02:32;26.60;80.50
6520;DHT22;3293;51.690;5.982;2023-09-08T17:07:31;26.50;82.00
6520;DHT22;3293;51.690;5.982;2023-09-08T17:12:31;26.40;83.60
6520;DHT22;3293;51.690;5.982;2023-09-08T17:17:31;26.30;86.80
6520;DHT22;3293;51.690;5.982;2023-09-08T17:22:31;26.10;90.60
6520;DHT22;3293;51.690;5.982;2023-09-08T17:27:33;25.90;92.10
6520;DHT22;3293;51.690;5.982;2023-09-08T17:32:33;25.80;93.40
6520;DHT22;3293;51.690;5.982;2023-09-08T17:37:33;25.60;95.00
6520;DHT22;3293;51.690;5.982;2023-09-08T17:42:33;25.50;95.90
6520;DHT22;3293;51.690;5.982;2023-09-08T17:47:34;25.30;97.10
6520;DHT22;3293;51.690;5.982;2023-09-08T17:52:35;25.10;98.10
6520;DHT22;3293;51.690;5.982;2023-09-08T17:57:37;25.00;99.40
6520;DHT22;3293;51.690;5.982;2023-09-08T18:02:38;24.80;99.90
6520;DHT22;3293;51.690;5.982;2023-09-08T18:07:38;24.60;99.90
6520;DHT22;3293;51.690;5.982;2023-09-08T18:12:38;24.50;99.90
6520;DHT22;3293;51.690;5.982;2023-09-08T18:17:41;24.30;99.90
6520;DHT22;3293;51.690;5.982;2023-09-08T18:22:44;24.10;99.90
6520;DHT22;3293;51.690;5.982;2023-09-08T18:27:44;24.00;99.90
6520;DHT22;3293;51.690;5.982;2023-09-08T18:32:46;23.80;99.90
6520;DHT22;3293;51.690;5.982;2023-09-08T18:37:46;23.70;99.90
6520;DHT22;3293;51.690;5.982;2023-09-08T18:42:46;23.60;99.90
6520;DHT22;3293;51.690;5.982;2023-09-08T18:47:45;23.50;99.90
6520;DHT22;3293;51.690;5.982;2023-09-08T18:52:45;23.40;99.90
6520;DHT22;3293;51.690;5.982;2023-09-08T18:57:47;23.30;99.90
6520;DHT22;3293;51.690;5.982;2023-09-08T19:02:47;23.20;99.90
6520;DHT22;3293;51.690;5.982;2023-09-08T19:07:47;23.10;99.90
6520;DHT22;3293;51.690;5.982;2023-09-08T19:12:48;23.00;99.90
6520;DHT22;3293;51.690;5.982;2023-09-08T19:17:50;22.90;99.90
6520;DHT22;3293;51.690;5.982;2023-09-08T19:22:50;22.80;99.90
6520;DHT22;3293;51.690;5.982;2023-09-08T19:27:51;22.80;99.90
6520;DHT22;3293;51.690;5.982;2023-09-08T19:32:51;22.70;99.90
6520;DHT22;3293;51.690;5.982;2023-09-08T19:37:52;22.60;99.90
6520;DHT22;3293;51.690;5.982;2023-09-08T19:42:52;22.50;99.90
6520;DHT22;3293;51.690;5.982;2023-09-08T19:47:53;22.40;99.90
6520;DHT22;3293;51.690;5.982;2023-09-08T19:52:55;22.30;99.90
6520;DHT22;3293;51.690;5.982;2023-09-08T19:57:55;22.30;99.90
6520;DHT22;3293;51.690;5.982;2023-09-08T20:02:57;22.20;99.90
6520;DHT22;3293;51.690;5.982;2023-09-08T20:07:57;22.10;99.90
6520;DHT22;3293;51.690;5.982;2023-09-08T20:12:57;22.00;99.90
6520;DHT22;3293;51.690;5.982;2023-09-08T20:17:58;22.00;99.90
6520;DHT22;3293;51.690;5.982;2023-09-08T20:22:58;21.90;99.90
6520;DHT22;3293;51.690;5.982;2023-09-08T20:27:58;21.80;99.90
6520;DHT22;3293;51.690;5.982;2023-09-08T20:32:58;21.70;99.90
6520;DHT22;3293;51.690;5.982;2023-09-08T20:37:58;21.60;99.90
6520;DHT22;3293;51.690;5.982;2023-09-08T20:42:58;21.50;99.90
6520;DHT22;3293;51.690;5.982;2023-09-08T20:47:58;21.40;99.90
6520;DHT22;3293;51.690;5.982;2023-09-08T20:52:58;21.40;99.90
6520;DHT22;3293;51.690;5.982;2023-09-08T20:57:59;21.30;99.90
6520;DHT22;3293;51.690;5.982;2023-09-08T21:02:59;21.10;99.90
6520;DHT22;3293;51.690;5.982;2023-09-08T21:08:00;21.10;99.90
6520;DHT22;3293;51.690;5.982;2023-09-08T21:13:00;21.00;99.90
6520;DHT22;3293;51.690;5.982;2023-09-08T21:18:01;20.90;99.90
6520;DHT22;3293;51.690;5.982;2023-09-08T21:23:02;20.90;99.90
6520;DHT22;3293;51.690;5.982;2023-09-08T21:28:02;20.70;99.90
6520;DHT22;3293;51.690;5.982;2023-09-08T21:33:05;20.70;99.90
6520;DHT22;3293;51.690;5.982;2023-09-08T21:38:07;20.60;99.90
6520;DHT22;3293;51.690;5.982;2023-09-08T21:43:07;20.50;99.90
6520;DHT22;3293;51.690;5.982;2023-09-08T21:48:07;20.40;99.90
6520;DHT22;3293;51.690;5.982;2023-09-08T21:53:07;20.40;99.90
6520;DHT22;3293;51.690;5.982;2023-09-08T21:58:07;20.30;99.90
6520;DHT22;3293;51.690;5.982;2023-09-08T22:03:07;20.20;99.90
6520;DHT22;3293;51.690;5.982;2023-09-08T22:08:07;20.10;99.90
6520;DHT22;3293;51.690;5.982;2023-09-08T22:13:07;20.10;99.90
6520;DHT22;3293;51.690;5.982;2023-09-08T22:18:08;20.00;99.90
6520;DHT22;3293;51.690;5.982;2023-09-08T22:23:08;20.00;99.90
6520;DHT22;3293;51.690;5.982;2023-09-08T22:28:08;19.90;99.90
6520;DHT22;3293;51.690;5.982;2023-09-08T22:33:08;19.90;99.90
6520;DHT22;3293;51.690;5.982;2023-09-08T22:38:08;19.80;99.90
6520;DHT22;3293;51.690;5.982;2023-09-08T22:43:09;19.70;99.90
6520;DHT22;3293;51.690;5.982;2023-09-08T22:48:09;19.70;99.90
6520;DHT22;3293;51.690;5.982;2023-09-08T22:53:09;19.60;99.90
6520;DHT22;3293;51.690;5.982;2023-09-08T22:58:10;19.60;99.90
6520;DHT22;3293;51.690;5.982;2023-09-08T23:03:09;19.50;99.90
6520;DHT22;3293;51.690;5.982;2023-09-08T23:08:09;19.40;99.90
6520;DHT22;3293;51.690;5.982;2023-09-08T23:13:09;19.40;99.90
6520;DHT22;3293;51.690;5.982;2023-09-08T23:18:10;19.40;99.90
6520;DHT22;3293;51.690;5.982;2023-09-08T23:23:10;19.30;99.90
6520;DHT22;3293;51.690;5.982;2023-09-08T23:28:11;19.30;99.90
6520;DHT22;3293;51.690;5.982;2023-09-08T23:33:12;19.20;99.90
6520;DHT22;3293;51.690;5.982;2023-09-08T23:38:13;19.20;99.90
6520;DHT22;3293;51.690;5.982;2023-09-08T23:43:13;19.20;99.90
6520;DHT22;3293;51.690;5.982;2023-09-08T23:48:13;19.10;99.90
6520;DHT22;3293;51.690;5.982;2023-09-08T23:53:13;19.10;99.90
6520;DHT22;3293;51.690;5.982;2023-09-08T23:58:13;19.10;99.90
